createdAt,value
2023-02-16T00:00:47.755Z,47.83
2023-02-16T00:03:22.690Z,46.80
2023-02-16T00:05:51.737Z,45.63
2023-02-16T00:08:19.715Z,47.37
2023-02-16T00:11:07.567Z,43.50
2023-02-16T00:13:44.972Z,43.30
2023-02-16T00:16:16.397Z,44.30
2023-02-16T00:18:45.021Z,43.97
2023-02-16T00:21:13.655Z,42.27
2023-02-16T00:23:43.127Z,43.43
2023-02-16T00:26:24.081Z,43.03
2023-02-16T00:29:00.333Z,43.10
2023-02-16T00:31:33.281Z,37.70
2023-02-16T00:34:23.484Z,39.63
2023-02-16T00:36:51.228Z,39.97
2023-02-16T00:39:18.912Z,41.63
2023-02-16T00:41:50.474Z,34.00
2023-02-16T00:44:35.600Z,38.30
2023-02-16T00:47:32.482Z,38.60
2023-02-16T00:50:00.804Z,37.93
2023-02-16T00:52:45.890Z,42.50
2023-02-16T00:55:21.165Z,37.30
2023-02-16T00:58:07.015Z,37.20
2023-02-16T01:00:54.378Z,33.27
2023-02-16T01:03:29.012Z,38.33
2023-02-16T01:06:16.235Z,32.43
2023-02-16T01:09:02.651Z,32.53
2023-02-16T01:11:33.268Z,32.73
2023-02-16T01:14:02.779Z,35.40
2023-02-16T01:16:40.877Z,34.43
2023-02-16T01:19:12.178Z,32.37
2023-02-16T01:21:44.279Z,32.43
2023-02-16T01:24:14.666Z,32.03
2023-02-16T01:26:48.301Z,33.77
2023-02-16T01:29:21.092Z,34.60
2023-02-16T01:31:50.571Z,34.70
2023-02-16T01:34:18.250Z,31.93
2023-02-16T01:36:49.046Z,31.70
2023-02-16T01:39:19.705Z,33.13
2023-02-16T01:42:02.574Z,33.53
2023-02-16T01:44:41.336Z,34.37
2023-02-16T01:47:49.874Z,33.50
2023-02-16T01:50:28.779Z,34.07
2023-02-16T01:53:06.382Z,34.97
2023-02-16T01:55:43.169Z,35.50
2023-02-16T01:58:45.745Z,38.50
2023-02-16T02:01:41.547Z,32.50
2023-02-16T02:04:48.024Z,35.33
2023-02-16T02:07:31.821Z,34.10
2023-02-16T02:10:17.774Z,32.67
2023-02-16T02:13:01.069Z,33.27
2023-02-16T02:15:32.532Z,32.23
2023-02-16T02:18:00.474Z,33.50
2023-02-16T02:21:21.131Z,30.40
2023-02-16T02:24:03.951Z,30.60
2023-02-16T02:27:03.914Z,35.10
2023-02-16T02:30:00.611Z,30.00
2023-02-16T02:33:03.666Z,32.13
2023-02-16T02:36:37.509Z,33.33
2023-02-16T02:39:28.696Z,30.03
2023-02-16T02:42:10.751Z,30.97
2023-02-16T02:44:52.306Z,32.93
2023-02-16T02:47:22.378Z,33.93
2023-02-16T02:49:55.265Z,32.67
2023-02-16T02:52:23.433Z,31.43
2023-02-16T02:55:10.310Z,35.47
2023-02-16T02:58:03.413Z,31.00
2023-02-16T03:00:41.370Z,31.07
2023-02-16T03:03:30.279Z,32.83
2023-02-16T03:06:21.485Z,30.30
2023-02-16T03:08:55.989Z,30.10
2023-02-16T03:11:48.596Z,31.93
2023-02-16T03:14:44.028Z,33.90
2023-02-16T03:17:36.827Z,29.30
2023-02-16T03:20:28.673Z,30.83
2023-02-16T03:23:16.674Z,29.80
2023-02-16T03:26:03.672Z,30.93
2023-02-16T03:28:54.282Z,32.57
2023-02-16T03:31:30.053Z,36.33
2023-02-16T03:33:58.220Z,30.67
2023-02-16T03:36:30.762Z,33.73
2023-02-16T03:38:59.118Z,26.47
2023-02-16T03:41:31.533Z,35.30
2023-02-16T03:43:59.750Z,30.23
2023-02-16T03:46:27.426Z,32.07
2023-02-16T03:48:55.081Z,29.23
2023-02-16T03:51:22.917Z,26.63
2023-02-16T03:53:51.085Z,29.67
2023-02-16T03:56:19.024Z,33.37
2023-02-16T03:58:46.909Z,32.50
2023-02-16T04:01:14.563Z,30.23
2023-02-16T04:03:42.212Z,33.27
2023-02-16T04:06:10.148Z,28.13
2023-02-16T04:08:37.950Z,33.70
2023-02-16T04:11:24.094Z,33.93
2023-02-16T04:13:52.036Z,30.80
2023-02-16T04:16:19.730Z,28.67
2023-02-16T04:18:47.512Z,35.50
2023-02-16T04:21:29.400Z,29.27
2023-02-16T04:24:10.258Z,31.20
2023-02-16T04:27:02.607Z,31.97
2023-02-16T04:30:20.385Z,33.97
2023-02-16T04:33:26.476Z,34.17
2023-02-16T04:36:09.214Z,32.10
2023-02-16T04:38:44.217Z,31.97
2023-02-16T04:41:40.434Z,35.77
2023-02-16T04:44:18.031Z,34.23
2023-02-16T04:47:04.018Z,30.30
2023-02-16T05:00:46.414Z,36.80
2023-02-16T05:04:12.587Z,31.00
2023-02-16T05:06:52.402Z,31.30
2023-02-16T05:09:42.648Z,38.43
2023-02-16T05:12:37.800Z,31.53
2023-02-16T05:18:58.307Z,32.83
2023-02-16T05:22:48.078Z,34.40
2023-02-16T05:26:24.252Z,36.23
2023-02-16T05:29:20.940Z,31.50
2023-02-16T05:32:38.517Z,35.70
2023-02-16T05:36:33.508Z,33.57
2023-02-16T05:39:38.780Z,38.53
2023-02-16T05:43:47.279Z,34.30
2023-02-16T05:45:41.261Z,34.40
2023-02-16T05:48:39.267Z,35.03
2023-02-16T05:51:41.108Z,35.13
2023-02-16T05:54:18.542Z,33.53
2023-02-16T06:00:07.236Z,36.93
2023-02-16T06:07:14.423Z,37.03
2023-02-16T06:09:25.940Z,36.90
2023-02-16T06:15:10.178Z,39.43
2023-02-16T06:17:57.813Z,44.37
2023-02-16T06:21:33.835Z,39.67
2023-02-16T06:24:26.713Z,36.27
2023-02-16T06:30:44.793Z,38.50
2023-02-16T06:34:06.204Z,40.17
2023-02-16T06:38:23.532Z,36.53
2023-02-16T06:40:54.830Z,36.17
2023-02-16T06:43:29.270Z,35.80
2023-02-16T06:48:12.985Z,35.80
2023-02-16T06:50:00.972Z,31.97
2023-02-16T06:53:27.624Z,33.07
2023-02-16T06:56:10.172Z,36.43
2023-02-16T06:59:40.874Z,39.93
2023-02-16T07:02:11.320Z,37.03
2023-02-16T07:04:48.972Z,37.33
2023-02-16T07:07:29.389Z,37.20
2023-02-16T07:09:59.602Z,40.77
2023-02-16T07:12:27.377Z,41.40
2023-02-16T07:14:58.174Z,34.83
2023-02-16T07:17:26.263Z,41.13
2023-02-16T07:19:58.945Z,38.30
2023-02-16T07:22:29.741Z,39.63
2023-02-16T07:25:00.531Z,39.40
2023-02-16T07:27:28.251Z,40.63
2023-02-16T07:29:55.987Z,37.77
2023-02-16T07:32:23.719Z,40.37
2023-02-16T07:34:51.358Z,38.13
2023-02-16T07:37:19.621Z,35.80
2023-02-16T07:39:47.409Z,40.37
2023-02-16T07:42:15.130Z,38.40
2023-02-16T07:44:47.991Z,39.87
2023-02-16T07:47:15.694Z,40.50
2023-02-16T07:49:43.492Z,38.20
2023-02-16T07:52:11.199Z,42.50
2023-02-16T07:54:39.058Z,40.40
2023-02-16T07:57:07.458Z,40.47
2023-02-16T07:59:35.349Z,45.07
2023-02-16T08:02:03.164Z,39.27
2023-02-16T08:04:35.833Z,46.53
2023-02-16T08:07:03.513Z,38.27
2023-02-16T08:09:31.950Z,39.17
2023-02-16T08:11:59.696Z,43.77
2023-02-16T08:14:27.553Z,40.23
2023-02-16T08:16:57.411Z,38.47
2023-02-16T08:19:25.396Z,41.00
2023-02-16T08:21:52.992Z,41.73
2023-02-16T08:24:21.263Z,37.87
2023-02-16T08:26:49.910Z,37.43
2023-02-16T08:29:20.247Z,41.87
2023-02-16T08:31:48.786Z,39.27
2023-02-16T08:34:19.428Z,42.80
2023-02-16T08:36:53.221Z,43.47
2023-02-16T08:39:23.100Z,36.37
2023-02-16T08:41:51.976Z,36.90
2023-02-16T08:44:25.573Z,37.93
2023-02-16T08:46:59.332Z,41.53
2023-02-16T08:49:27.703Z,38.77
2023-02-16T08:51:58.334Z,36.67
2023-02-16T08:54:30.519Z,39.43
2023-02-16T08:56:59.774Z,38.90
2023-02-16T08:59:29.068Z,38.27
2023-02-16T09:01:58.347Z,37.07
2023-02-16T09:04:29.055Z,34.83
2023-02-16T09:06:59.533Z,43.47
2023-02-16T09:09:27.665Z,41.33
2023-02-16T09:11:56.146Z,37.60
2023-02-16T09:14:24.405Z,39.87
2023-02-16T09:16:52.920Z,39.57
2023-02-16T09:19:21.571Z,35.13
2023-02-16T09:21:56.325Z,41.67
2023-02-16T09:24:24.029Z,45.63
2023-02-16T09:26:52.128Z,38.53
2023-02-16T09:29:21.224Z,34.47
2023-02-16T09:31:49.592Z,43.80
2023-02-16T09:34:21.349Z,38.57
2023-02-16T09:36:50.292Z,36.73
2023-02-16T09:39:19.084Z,36.40
2023-02-16T09:42:40.479Z,34.37
2023-02-16T09:45:14.080Z,48.13
2023-02-16T09:47:47.446Z,37.40
2023-02-16T09:50:50.305Z,38.33
2023-02-16T09:53:24.338Z,38.80
2023-02-16T09:56:27.661Z,34.70
2023-02-16T09:59:10.654Z,39.17
2023-02-16T10:01:47.874Z,35.30
2023-02-16T10:04:24.841Z,36.03
2023-02-16T10:07:14.680Z,33.70
2023-02-16T10:09:49.026Z,37.17
2023-02-16T10:12:27.021Z,36.33
2023-02-16T10:15:03.411Z,38.00
2023-02-16T10:17:37.778Z,37.77
2023-02-16T10:20:11.578Z,39.53
2023-02-16T10:22:48.501Z,35.90
2023-02-16T10:25:26.388Z,34.03
2023-02-16T10:28:22.759Z,36.38
2023-02-16T10:31:03.918Z,34.88
2023-02-16T10:33:46.816Z,36.17
2023-02-16T10:36:50.308Z,35.28
2023-02-16T10:39:34.119Z,33.50
2023-02-16T10:42:53.575Z,32.70
2023-02-16T10:45:30.381Z,36.65
2023-02-16T10:47:58.664Z,33.90
2023-02-16T10:50:58.753Z,36.65
2023-02-16T10:53:42.484Z,32.63
2023-02-16T10:57:03.016Z,38.22
2023-02-16T10:59:43.699Z,31.42
2023-02-16T11:02:23.655Z,35.63
2023-02-16T11:04:57.952Z,41.03
2023-02-16T11:07:29.934Z,38.08
2023-02-16T11:10:06.078Z,38.80
2023-02-16T11:12:38.423Z,33.30
2023-02-16T11:15:16.598Z,35.10
2023-02-16T11:17:59.910Z,29.75
2023-02-16T11:20:31.801Z,33.53
2023-02-16T11:23:25.154Z,35.65
2023-02-16T11:25:59.392Z,37.88
2023-02-16T11:28:32.719Z,32.72
2023-02-16T11:31:23.274Z,33.78
2023-02-16T11:34:38.364Z,38.50
2023-02-16T11:37:37.805Z,34.80
2023-02-16T11:40:29.537Z,30.48
2023-02-16T11:43:00.904Z,36.83
2023-02-16T11:45:38.294Z,40.60
2023-02-16T11:48:29.296Z,36.60
2023-02-16T11:51:09.327Z,34.13
2023-02-16T11:53:49.042Z,33.97
2023-02-16T11:56:29.824Z,32.50
2023-02-16T11:59:22.033Z,32.25
2023-02-16T12:02:08.897Z,35.63
2023-02-16T12:05:21.867Z,36.90
2023-02-16T12:08:31.162Z,38.20
2023-02-16T12:11:52.065Z,32.20
2023-02-16T12:14:46.626Z,34.00
2023-02-16T12:17:59.187Z,33.60
2023-02-16T12:20:56.529Z,33.50
2023-02-16T12:24:20.535Z,36.63
2023-02-16T12:27:07.962Z,30.05
2023-02-16T12:30:28.630Z,33.92
2023-02-16T12:34:09.036Z,33.63
2023-02-16T12:37:18.710Z,35.38
2023-02-16T12:40:10.561Z,31.90
2023-02-16T12:43:15.412Z,31.35
2023-02-16T12:45:50.457Z,30.15
2023-02-16T12:49:20.954Z,30.90
2023-02-16T12:52:04.533Z,31.73
2023-02-16T12:55:00.753Z,28.83
2023-02-16T12:57:31.810Z,32.55
2023-02-16T13:00:32.129Z,36.08
2023-02-16T13:03:47.702Z,53.03
2023-02-16T13:06:29.895Z,33.72
2023-02-16T13:09:24.842Z,36.55
2023-02-16T13:12:00.045Z,29.00
2023-02-16T13:14:33.718Z,34.05
2023-02-16T13:17:21.322Z,30.90
2023-02-16T13:19:52.946Z,30.77
2023-02-16T13:23:03.420Z,29.65
2023-02-16T13:26:32.012Z,33.95
2023-02-16T13:29:31.221Z,34.40
2023-02-16T13:32:21.145Z,35.05
2023-02-16T13:35:10.817Z,30.00
2023-02-16T13:38:10.332Z,26.88
2023-02-16T13:41:30.379Z,31.40
2023-02-16T13:44:39.416Z,33.17
2023-02-16T13:47:24.191Z,31.35
2023-02-16T13:50:41.532Z,28.92
2023-02-16T13:53:48.730Z,30.55
2023-02-16T13:56:38.120Z,31.65
2023-02-16T13:59:18.760Z,34.17
2023-02-16T14:01:54.438Z,31.77
2023-02-16T14:04:29.788Z,35.22
2023-02-16T14:07:17.770Z,29.92
2023-02-16T14:09:50.999Z,32.58
2023-02-16T14:12:39.825Z,31.17
2023-02-16T14:15:22.919Z,33.08
2023-02-16T14:17:50.917Z,34.53
2023-02-16T14:20:20.987Z,32.45
2023-02-16T14:23:00.350Z,29.45
2023-02-16T14:25:30.598Z,36.67
2023-02-16T14:28:22.381Z,30.98
2023-02-16T14:31:03.056Z,33.60
2023-02-16T14:34:04.032Z,33.40
2023-02-16T14:36:32.403Z,34.75
2023-02-16T14:39:01.511Z,28.80
2023-02-16T14:41:36.887Z,33.58
2023-02-16T14:44:04.959Z,32.38
2023-02-16T14:46:46.600Z,36.63
2023-02-16T14:50:20.303Z,37.85
2023-02-16T14:53:47.425Z,35.90
2023-02-16T14:57:03.435Z,31.85
2023-02-16T14:59:53.168Z,38.40
2023-02-16T15:02:38.145Z,33.72
2023-02-16T15:05:29.664Z,39.88
2023-02-16T15:08:22.417Z,29.05
2023-02-16T15:10:58.390Z,35.88
2023-02-16T15:13:30.132Z,31.58
2023-02-16T15:16:02.311Z,33.58
2023-02-16T15:18:38.174Z,35.42
2023-02-16T15:21:06.681Z,32.72
2023-02-16T15:23:36.115Z,33.63
2023-02-16T15:26:19.421Z,30.83
2023-02-16T15:29:33.673Z,35.80
2023-02-16T15:32:06.952Z,34.05
2023-02-16T15:34:36.354Z,37.97
2023-02-16T15:37:28.644Z,30.95
2023-02-16T15:40:23.012Z,37.97
2023-02-16T15:42:51.297Z,33.10
2023-02-16T15:45:29.481Z,35.85
2023-02-16T15:48:27.777Z,37.03
2023-02-16T15:51:14.031Z,34.58
2023-02-16T15:54:01.029Z,30.98
2023-02-16T15:56:37.046Z,28.35
2023-02-16T15:59:35.771Z,30.17
2023-02-16T16:02:06.873Z,27.17
2023-02-16T16:04:38.747Z,26.55
2023-02-16T16:07:11.761Z,31.38
2023-02-16T16:09:42.174Z,27.08
2023-02-16T16:12:16.267Z,31.08
2023-02-16T16:14:56.548Z,29.52
2023-02-16T16:17:34.175Z,37.80
2023-02-16T16:20:32.626Z,27.98
2023-02-16T16:23:27.064Z,24.83
2023-02-16T16:25:55.890Z,29.23
2023-02-16T16:28:27.168Z,28.23
2023-02-16T16:31:14.208Z,26.00
2023-02-16T16:34:08.675Z,25.40
2023-02-16T16:36:45.537Z,23.58
2023-02-16T16:39:16.345Z,27.70
2023-02-16T16:42:19.898Z,26.23
2023-02-16T16:45:01.070Z,25.90
2023-02-16T16:47:54.137Z,24.95
2023-02-16T16:50:37.725Z,32.88
2023-02-16T16:53:28.339Z,24.08
2023-02-16T16:55:57.893Z,25.10
2023-02-16T16:58:25.921Z,25.75
2023-02-16T17:00:54.220Z,21.27
2023-02-16T17:03:24.460Z,21.80
2023-02-16T17:05:57.711Z,26.20
2023-02-16T17:08:25.607Z,22.15
2023-02-16T17:10:56.504Z,24.42
2023-02-16T17:13:24.591Z,24.45
2023-02-16T17:16:11.657Z,24.90
2023-02-16T17:18:39.836Z,31.05
2023-02-16T17:21:07.564Z,27.85
2023-02-16T17:23:35.891Z,25.33
2023-02-16T17:26:07.182Z,23.85
2023-02-16T17:28:36.875Z,26.67
2023-02-16T17:31:09.211Z,28.95
2023-02-16T17:33:36.998Z,27.33
2023-02-16T17:36:07.366Z,27.92
2023-02-16T17:38:35.425Z,22.75
2023-02-16T17:41:03.295Z,27.48
2023-02-16T17:43:34.211Z,24.80
2023-02-16T17:46:06.525Z,30.35
2023-02-16T17:48:34.569Z,31.20
2023-02-16T17:51:02.353Z,23.50
2023-02-16T17:53:32.963Z,29.15
2023-02-16T17:56:01.605Z,26.27
2023-02-16T17:58:29.291Z,33.25
2023-02-16T18:00:57.659Z,28.85
2023-02-16T18:03:25.602Z,31.83
2023-02-16T18:05:53.886Z,34.33
2023-02-16T18:08:21.632Z,31.65
2023-02-16T18:11:01.841Z,33.33
2023-02-16T18:13:31.032Z,35.08
2023-02-16T18:16:01.803Z,36.13
2023-02-16T18:18:30.659Z,29.45
2023-02-16T18:20:58.377Z,31.85
2023-02-16T18:23:26.101Z,27.83
2023-02-16T18:25:55.122Z,27.13
2023-02-16T18:28:28.322Z,34.70
2023-02-16T18:30:56.566Z,28.98
2023-02-16T18:33:25.512Z,31.08
2023-02-16T18:35:57.448Z,32.08
2023-02-16T18:38:25.348Z,27.88
2023-02-16T18:40:55.074Z,29.88
2023-02-16T18:43:24.245Z,28.08
2023-02-16T18:45:53.475Z,29.40
2023-02-16T18:48:21.745Z,28.17
2023-02-16T18:50:49.614Z,25.00
2023-02-16T18:53:17.451Z,25.60
2023-02-16T18:55:45.187Z,29.88
2023-02-16T18:58:15.247Z,27.10
2023-02-16T19:00:45.674Z,30.58
2023-02-16T19:03:23.338Z,31.42
2023-02-16T19:05:54.051Z,25.55
2023-02-16T19:08:21.981Z,29.13
2023-02-16T19:10:49.815Z,32.92
2023-02-16T19:13:17.792Z,26.13
2023-02-16T19:15:45.748Z,36.58
2023-02-16T19:18:13.496Z,26.55
2023-02-16T19:20:41.659Z,29.02
2023-02-16T19:23:09.495Z,31.00
2023-02-16T19:25:37.136Z,30.60
2023-02-16T19:28:08.285Z,27.63
2023-02-16T19:30:39.093Z,29.23
2023-02-16T19:33:06.835Z,28.55
2023-02-16T19:35:34.603Z,29.80
2023-02-16T19:38:02.569Z,26.52
2023-02-16T19:40:42.281Z,29.90
2023-02-16T19:43:12.325Z,28.33
2023-02-16T19:45:41.385Z,26.17
2023-02-16T19:48:10.454Z,27.55
2023-02-16T19:50:39.189Z,27.83
2023-02-16T19:53:07.148Z,28.02
2023-02-16T19:55:34.915Z,29.25
2023-02-16T19:58:02.886Z,29.63
2023-02-16T20:00:32.723Z,26.17
2023-02-16T20:03:00.974Z,23.75
2023-02-16T20:05:28.705Z,24.58
2023-02-16T20:07:56.415Z,23.08
2023-02-16T20:10:24.152Z,24.98
2023-02-16T20:12:53.881Z,26.60
2023-02-16T20:15:51.562Z,26.88
2023-02-16T20:18:19.482Z,25.75
2023-02-16T20:20:47.184Z,28.17
2023-02-16T20:23:18.246Z,25.17
2023-02-16T20:25:45.975Z,30.60
2023-02-16T20:28:13.693Z,28.85
2023-02-16T20:30:42.417Z,29.45
2023-02-16T20:33:10.026Z,30.08
2023-02-16T20:35:43.574Z,28.50
2023-02-16T20:38:11.702Z,26.73
2023-02-16T20:40:40.003Z,32.15
2023-02-16T20:43:08.123Z,30.88
2023-02-16T20:45:41.306Z,29.40
2023-02-16T20:48:10.427Z,34.25
2023-02-16T20:50:38.345Z,29.00
2023-02-16T20:53:06.301Z,29.70
2023-02-16T20:55:34.277Z,28.97
2023-02-16T20:58:02.140Z,30.27
2023-02-16T21:00:32.762Z,34.17
2023-02-16T21:03:00.555Z,33.55
2023-02-16T21:05:28.309Z,33.23
2023-02-16T21:07:56.210Z,33.07
2023-02-16T21:10:23.934Z,30.87
2023-02-16T21:12:51.743Z,31.03
2023-02-16T21:15:19.463Z,34.43
2023-02-16T21:17:47.232Z,34.17
2023-02-16T21:20:15.769Z,34.27
2023-02-16T21:22:44.481Z,29.63
2023-02-16T21:25:12.170Z,35.92
2023-02-16T21:27:40.026Z,30.33
2023-02-16T21:30:09.229Z,34.57
2023-02-16T21:32:36.925Z,30.87
2023-02-16T21:35:05.230Z,33.30
2023-02-16T21:37:35.550Z,31.27
2023-02-16T21:40:29.458Z,32.83
2023-02-16T21:43:01.141Z,34.07
2023-02-16T21:45:29.046Z,33.80
2023-02-16T21:48:16.528Z,37.03
2023-02-16T21:50:44.435Z,36.33
2023-02-16T21:53:12.087Z,35.97
2023-02-16T21:55:58.575Z,34.30
2023-02-16T21:58:27.008Z,33.60
2023-02-16T22:00:56.282Z,35.43
2023-02-16T22:03:24.100Z,34.63
2023-02-16T22:05:52.681Z,35.80
2023-02-16T22:08:22.863Z,39.40
2023-02-16T22:10:50.849Z,41.37
2023-02-16T22:13:18.801Z,33.23
2023-02-16T22:15:46.770Z,35.23
2023-02-16T22:18:15.921Z,35.13
2023-02-16T22:20:44.028Z,35.50
2023-02-16T22:23:12.421Z,37.37
2023-02-16T22:25:40.784Z,34.90
2023-02-16T22:28:11.833Z,37.47
2023-02-16T22:30:45.409Z,37.47
2023-02-16T22:33:17.719Z,38.60
2023-02-16T22:35:45.650Z,34.57
2023-02-16T22:38:13.473Z,42.93
2023-02-16T22:40:41.273Z,39.43
2023-02-16T22:43:09.249Z,37.73
2023-02-16T22:45:37.577Z,36.47
2023-02-16T22:48:05.706Z,39.10
2023-02-16T22:50:33.685Z,40.77
2023-02-16T22:53:01.446Z,35.23
2023-02-16T22:55:29.246Z,37.80
2023-02-16T22:57:57.064Z,36.30
2023-02-16T23:00:27.500Z,38.00
2023-02-16T23:02:55.409Z,36.73
2023-02-16T23:05:23.071Z,37.80
2023-02-16T23:07:50.885Z,36.43
2023-02-16T23:10:18.876Z,35.53
2023-02-16T23:12:46.575Z,35.43
2023-02-16T23:15:14.735Z,39.47
2023-02-16T23:17:42.471Z,35.53
2023-02-16T23:20:10.838Z,37.20
2023-02-16T23:22:39.790Z,39.70
2023-02-16T23:25:31.007Z,37.17
2023-02-16T23:28:01.628Z,38.97
2023-02-16T23:30:32.456Z,37.50
2023-02-16T23:33:02.778Z,37.00
2023-02-16T23:35:33.155Z,38.03
2023-02-16T23:38:02.908Z,36.87
2023-02-16T23:40:30.996Z,37.63
2023-02-16T23:42:58.978Z,39.10
2023-02-16T23:45:30.116Z,36.37
2023-02-16T23:47:59.331Z,38.33
2023-02-16T23:50:30.240Z,36.97
2023-02-16T23:53:00.249Z,36.00
2023-02-16T23:55:28.389Z,38.77
2023-02-16T23:57:58.946Z,44.23
